sensor_id;sensor_type;location;lat;lon;timestamp;P1;durP1;ratioP1;P2;durP2;ratioP2
15295;SDS011;7749;49.964;7.890;2022-11-25T00:01:31;34.57;;;22.13;;
15295;SDS011;7749;49.964;7.890;2022-11-25T00:03:59;23.27;;;15.97;;
15295;SDS011;7749;49.964;7.890;2022-11-25T00:06:31;23.37;;;13.50;;
15295;SDS011;7749;49.964;7.890;2022-11-25T00:09:08;20.80;;;14.30;;
15295;SDS011;7749;49.964;7.890;2022-11-25T00:11:38;22.47;;;13.63;;
15295;SDS011;7749;49.964;7.890;2022-11-25T00:14:11;23.27;;;16.43;;
15295;SDS011;7749;49.964;7.890;2022-11-25T00:16:41;21.53;;;13.73;;
15295;SDS011;7749;49.964;7.890;2022-11-25T00:19:14;23.03;;;14.37;;
15295;SDS011;7749;49.964;7.890;2022-11-25T00:21:42;21.60;;;14.07;;
15295;SDS011;7749;49.964;7.890;2022-11-25T00:24:10;21.93;;;13.47;;
15295;SDS011;7749;49.964;7.890;2022-11-25T00:26:40;22.80;;;12.67;;
15295;SDS011;7749;49.964;7.890;2022-11-25T00:29:09;23.03;;;11.47;;
15295;SDS011;7749;49.964;7.890;2022-11-25T00:31:38;18.23;;;11.07;;
15295;SDS011;7749;49.964;7.890;2022-11-25T00:34:10;18.40;;;11.97;;
15295;SDS011;7749;49.964;7.890;2022-11-25T00:36:39;20.60;;;11.20;;
15295;SDS011;7749;49.964;7.890;2022-11-25T00:39:09;18.27;;;11.10;;
15295;SDS011;7749;49.964;7.890;2022-11-25T00:41:39;15.87;;;10.33;;
15295;SDS011;7749;49.964;7.890;2022-11-25T00:44:26;18.53;;;11.17;;
15295;SDS011;7749;49.964;7.890;2022-11-25T00:49:39;17.90;;;11.00;;
15295;SDS011;7749;49.964;7.890;2022-11-25T00:52:08;17.63;;;11.33;;
15295;SDS011;7749;49.964;7.890;2022-11-25T00:54:39;16.17;;;10.63;;
15295;SDS011;7749;49.964;7.890;2022-11-25T00:57:07;18.87;;;10.70;;
15295;SDS011;7749;49.964;7.890;2022-11-25T00:59:34;17.23;;;10.53;;
15295;SDS011;7749;49.964;7.890;2022-11-25T01:02:02;16.20;;;9.97;;
15295;SDS011;7749;49.964;7.890;2022-11-25T01:04:30;14.90;;;10.47;;
15295;SDS011;7749;49.964;7.890;2022-11-25T01:06:58;23.70;;;11.17;;
15295;SDS011;7749;49.964;7.890;2022-11-25T01:09:26;22.10;;;13.07;;
15295;SDS011;7749;49.964;7.890;2022-11-25T01:11:54;18.43;;;10.37;;
15295;SDS011;7749;49.964;7.890;2022-11-25T01:14:22;16.23;;;10.17;;
15295;SDS011;7749;49.964;7.890;2022-11-25T01:16:50;14.63;;;10.27;;
15295;SDS011;7749;49.964;7.890;2022-11-25T01:19:18;16.73;;;11.30;;
15295;SDS011;7749;49.964;7.890;2022-11-25T01:21:46;17.47;;;10.87;;
15295;SDS011;7749;49.964;7.890;2022-11-25T01:24:14;19.30;;;11.57;;
15295;SDS011;7749;49.964;7.890;2022-11-25T01:26:43;24.43;;;14.10;;
15295;SDS011;7749;49.964;7.890;2022-11-25T01:29:12;31.07;;;17.17;;
15295;SDS011;7749;49.964;7.890;2022-11-25T01:31:44;21.07;;;13.43;;
15295;SDS011;7749;49.964;7.890;2022-11-25T01:34:14;36.20;;;20.80;;
15295;SDS011;7749;49.964;7.890;2022-11-25T01:36:42;23.03;;;12.70;;
15295;SDS011;7749;49.964;7.890;2022-11-25T01:39:17;19.00;;;11.27;;
15295;SDS011;7749;49.964;7.890;2022-11-25T01:41:46;19.57;;;10.67;;
15295;SDS011;7749;49.964;7.890;2022-11-25T01:47:32;18.27;;;10.00;;
15295;SDS011;7749;49.964;7.890;2022-11-25T01:49:52;19.43;;;11.20;;
15295;SDS011;7749;49.964;7.890;2022-11-25T01:52:28;18.07;;;11.77;;
15295;SDS011;7749;49.964;7.890;2022-11-25T01:57:33;22.50;;;11.70;;
15295;SDS011;7749;49.964;7.890;2022-11-25T02:00:07;26.87;;;14.80;;
15295;SDS011;7749;49.964;7.890;2022-11-25T02:02:35;20.43;;;12.70;;
15295;SDS011;7749;49.964;7.890;2022-11-25T02:05:06;18.47;;;11.77;;
15295;SDS011;7749;49.964;7.890;2022-11-25T02:07:37;18.80;;;10.90;;
15295;SDS011;7749;49.964;7.890;2022-11-25T02:10:11;20.43;;;11.57;;
15295;SDS011;7749;49.964;7.890;2022-11-25T02:12:42;22.97;;;11.87;;
15295;SDS011;7749;49.964;7.890;2022-11-25T02:15:15;15.40;;;10.60;;
15295;SDS011;7749;49.964;7.890;2022-11-25T02:17:43;15.50;;;11.17;;
15295;SDS011;7749;49.964;7.890;2022-11-25T02:20:13;19.60;;;10.53;;
15295;SDS011;7749;49.964;7.890;2022-11-25T02:25:26;15.93;;;9.73;;
15295;SDS011;7749;49.964;7.890;2022-11-25T02:28:09;17.63;;;10.60;;
15295;SDS011;7749;49.964;7.890;2022-11-25T02:30:40;15.10;;;9.60;;
15295;SDS011;7749;49.964;7.890;2022-11-25T02:33:09;13.90;;;9.77;;
15295;SDS011;7749;49.964;7.890;2022-11-25T02:35:38;19.00;;;10.20;;
15295;SDS011;7749;49.964;7.890;2022-11-25T02:38:08;15.63;;;9.87;;
15295;SDS011;7749;49.964;7.890;2022-11-25T02:40:46;14.93;;;9.13;;
15295;SDS011;7749;49.964;7.890;2022-11-25T02:43:17;14.67;;;9.90;;
15295;SDS011;7749;49.964;7.890;2022-11-25T02:45:47;14.97;;;10.30;;
15295;SDS011;7749;49.964;7.890;2022-11-25T02:48:37;19.87;;;9.63;;
15295;SDS011;7749;49.964;7.890;2022-11-25T02:51:27;13.77;;;10.67;;
15295;SDS011;7749;49.964;7.890;2022-11-25T02:53:57;15.60;;;9.67;;
15295;SDS011;7749;49.964;7.890;2022-11-25T02:56:28;13.73;;;9.13;;
15295;SDS011;7749;49.964;7.890;2022-11-25T02:58:58;14.10;;;9.43;;
15295;SDS011;7749;49.964;7.890;2022-11-25T03:01:27;15.97;;;8.87;;
15295;SDS011;7749;49.964;7.890;2022-11-25T03:03:56;14.87;;;9.13;;
15295;SDS011;7749;49.964;7.890;2022-11-25T03:06:23;13.53;;;9.10;;
15295;SDS011;7749;49.964;7.890;2022-11-25T03:08:51;13.73;;;7.80;;
15295;SDS011;7749;49.964;7.890;2022-11-25T03:11:19;14.87;;;8.47;;
15295;SDS011;7749;49.964;7.890;2022-11-25T03:13:47;14.80;;;8.90;;
15295;SDS011;7749;49.964;7.890;2022-11-25T03:16:14;14.50;;;8.77;;
15295;SDS011;7749;49.964;7.890;2022-11-25T03:18:42;16.37;;;9.50;;
15295;SDS011;7749;49.964;7.890;2022-11-25T03:21:10;19.27;;;9.50;;
15295;SDS011;7749;49.964;7.890;2022-11-25T03:23:37;16.37;;;10.03;;
15295;SDS011;7749;49.964;7.890;2022-11-25T03:26:05;15.63;;;8.60;;
15295;SDS011;7749;49.964;7.890;2022-11-25T03:28:33;18.20;;;9.97;;
15295;SDS011;7749;49.964;7.890;2022-11-25T03:31:01;16.83;;;10.33;;
15295;SDS011;7749;49.964;7.890;2022-11-25T03:33:28;16.70;;;10.23;;
15295;SDS011;7749;49.964;7.890;2022-11-25T03:35:56;16.00;;;9.73;;
15295;SDS011;7749;49.964;7.890;2022-11-25T03:38:23;16.87;;;10.17;;
15295;SDS011;7749;49.964;7.890;2022-11-25T03:40:51;15.83;;;10.77;;
15295;SDS011;7749;49.964;7.890;2022-11-25T03:43:19;18.03;;;10.83;;
15295;SDS011;7749;49.964;7.890;2022-11-25T03:45:47;19.77;;;11.60;;
15295;SDS011;7749;49.964;7.890;2022-11-25T03:48:16;17.30;;;10.10;;
15295;SDS011;7749;49.964;7.890;2022-11-25T03:50:43;17.97;;;9.43;;
15295;SDS011;7749;49.964;7.890;2022-11-25T03:53:13;21.83;;;10.07;;
15295;SDS011;7749;49.964;7.890;2022-11-25T03:55:41;17.17;;;13.53;;
15295;SDS011;7749;49.964;7.890;2022-11-25T03:58:09;23.00;;;13.37;;
15295;SDS011;7749;49.964;7.890;2022-11-25T04:00:37;22.83;;;12.90;;
15295;SDS011;7749;49.964;7.890;2022-11-25T04:03:05;16.67;;;10.50;;
15295;SDS011;7749;49.964;7.890;2022-11-25T04:05:33;21.33;;;10.63;;
15295;SDS011;7749;49.964;7.890;2022-11-25T04:08:00;14.87;;;9.33;;
15295;SDS011;7749;49.964;7.890;2022-11-25T04:10:28;16.17;;;9.97;;
15295;SDS011;7749;49.964;7.890;2022-11-25T04:12:56;16.57;;;10.47;;
15295;SDS011;7749;49.964;7.890;2022-11-25T04:15:23;16.60;;;10.77;;
15295;SDS011;7749;49.964;7.890;2022-11-25T04:17:51;15.73;;;10.23;;
15295;SDS011;7749;49.964;7.890;2022-11-25T04:20:19;15.47;;;9.50;;
15295;SDS011;7749;49.964;7.890;2022-11-25T04:22:47;18.93;;;10.30;;
15295;SDS011;7749;49.964;7.890;2022-11-25T04:25:14;17.30;;;10.00;;
15295;SDS011;7749;49.964;7.890;2022-11-25T04:27:42;19.53;;;10.40;;
15295;SDS011;7749;49.964;7.890;2022-11-25T04:30:10;18.87;;;10.93;;
15295;SDS011;7749;49.964;7.890;2022-11-25T04:32:38;27.70;;;11.10;;
15295;SDS011;7749;49.964;7.890;2022-11-25T04:35:06;19.97;;;10.53;;
15295;SDS011;7749;49.964;7.890;2022-11-25T04:37:34;20.03;;;11.00;;
15295;SDS011;7749;49.964;7.890;2022-11-25T04:40:02;19.23;;;10.83;;
15295;SDS011;7749;49.964;7.890;2022-11-25T04:42:30;21.13;;;10.93;;
15295;SDS011;7749;49.964;7.890;2022-11-25T04:44:58;19.20;;;10.57;;
15295;SDS011;7749;49.964;7.890;2022-11-25T04:47:47;18.67;;;11.07;;
15295;SDS011;7749;49.964;7.890;2022-11-25T04:50:15;20.70;;;10.97;;
15295;SDS011;7749;49.964;7.890;2022-11-25T04:52:45;20.63;;;11.37;;
15295;SDS011;7749;49.964;7.890;2022-11-25T04:55:12;19.10;;;11.07;;
15295;SDS011;7749;49.964;7.890;2022-11-25T04:57:40;19.10;;;10.07;;
15295;SDS011;7749;49.964;7.890;2022-11-25T05:00:08;20.27;;;9.80;;
15295;SDS011;7749;49.964;7.890;2022-11-25T05:02:36;21.57;;;9.50;;
15295;SDS011;7749;49.964;7.890;2022-11-25T05:05:04;18.87;;;9.57;;
15295;SDS011;7749;49.964;7.890;2022-11-25T05:07:32;14.80;;;9.47;;
15295;SDS011;7749;49.964;7.890;2022-11-25T05:10:00;19.17;;;8.97;;
15295;SDS011;7749;49.964;7.890;2022-11-25T05:12:28;17.00;;;9.27;;
15295;SDS011;7749;49.964;7.890;2022-11-25T05:14:56;19.97;;;10.00;;
15295;SDS011;7749;49.964;7.890;2022-11-25T05:17:25;17.07;;;9.50;;
15295;SDS011;7749;49.964;7.890;2022-11-25T05:19:54;16.43;;;10.27;;
15295;SDS011;7749;49.964;7.890;2022-11-25T05:22:24;21.23;;;9.60;;
15295;SDS011;7749;49.964;7.890;2022-11-25T05:24:53;18.77;;;10.10;;
15295;SDS011;7749;49.964;7.890;2022-11-25T05:27:22;16.00;;;9.23;;
15295;SDS011;7749;49.964;7.890;2022-11-25T05:29:53;18.80;;;9.83;;
15295;SDS011;7749;49.964;7.890;2022-11-25T05:32:22;19.17;;;10.67;;
15295;SDS011;7749;49.964;7.890;2022-11-25T05:34:50;15.87;;;9.00;;
15295;SDS011;7749;49.964;7.890;2022-11-25T05:37:17;18.80;;;10.27;;
15295;SDS011;7749;49.964;7.890;2022-11-25T05:39:50;17.80;;;10.37;;
15295;SDS011;7749;49.964;7.890;2022-11-25T05:42:18;18.87;;;10.10;;
15295;SDS011;7749;49.964;7.890;2022-11-25T05:44:45;16.23;;;10.70;;
15295;SDS011;7749;49.964;7.890;2022-11-25T05:47:13;18.50;;;10.13;;
15295;SDS011;7749;49.964;7.890;2022-11-25T05:49:41;18.70;;;10.63;;
15295;SDS011;7749;49.964;7.890;2022-11-25T05:52:08;19.03;;;10.13;;
15295;SDS011;7749;49.964;7.890;2022-11-25T05:54:37;21.00;;;11.27;;
15295;SDS011;7749;49.964;7.890;2022-11-25T05:57:05;19.77;;;10.23;;
15295;SDS011;7749;49.964;7.890;2022-11-25T05:59:32;18.40;;;9.90;;
15295;SDS011;7749;49.964;7.890;2022-11-25T06:02:00;19.67;;;10.17;;
15295;SDS011;7749;49.964;7.890;2022-11-25T06:04:27;21.87;;;10.50;;
15295;SDS011;7749;49.964;7.890;2022-11-25T06:06:55;18.30;;;11.07;;
15295;SDS011;7749;49.964;7.890;2022-11-25T06:09:23;17.37;;;10.63;;
15295;SDS011;7749;49.964;7.890;2022-11-25T06:11:51;18.53;;;10.63;;
15295;SDS011;7749;49.964;7.890;2022-11-25T06:14:19;21.20;;;10.83;;
15295;SDS011;7749;49.964;7.890;2022-11-25T06:16:46;18.53;;;10.57;;
15295;SDS011;7749;49.964;7.890;2022-11-25T06:19:14;19.60;;;11.07;;
15295;SDS011;7749;49.964;7.890;2022-11-25T06:21:41;20.93;;;12.00;;
15295;SDS011;7749;49.964;7.890;2022-11-25T06:24:09;17.93;;;11.97;;
15295;SDS011;7749;49.964;7.890;2022-11-25T06:26:37;19.03;;;11.90;;
15295;SDS011;7749;49.964;7.890;2022-11-25T06:29:04;18.77;;;12.00;;
15295;SDS011;7749;49.964;7.890;2022-11-25T06:31:32;22.37;;;12.87;;
15295;SDS011;7749;49.964;7.890;2022-11-25T06:34:00;21.50;;;12.20;;
15295;SDS011;7749;49.964;7.890;2022-11-25T06:36:27;23.13;;;12.73;;
15295;SDS011;7749;49.964;7.890;2022-11-25T06:38:55;18.87;;;11.77;;
15295;SDS011;7749;49.964;7.890;2022-11-25T06:41:23;20.00;;;13.40;;
15295;SDS011;7749;49.964;7.890;2022-11-25T06:43:50;16.67;;;12.23;;
15295;SDS011;7749;49.964;7.890;2022-11-25T06:46:18;22.50;;;13.17;;
15295;SDS011;7749;49.964;7.890;2022-11-25T06:48:51;18.53;;;13.33;;
15295;SDS011;7749;49.964;7.890;2022-11-25T06:51:19;20.70;;;11.83;;
15295;SDS011;7749;49.964;7.890;2022-11-25T06:53:47;19.10;;;12.17;;
15295;SDS011;7749;49.964;7.890;2022-11-25T06:58:49;20.17;;;11.50;;
15295;SDS011;7749;49.964;7.890;2022-11-25T07:01:25;22.67;;;12.40;;
15295;SDS011;7749;49.964;7.890;2022-11-25T07:03:55;24.70;;;12.37;;
15295;SDS011;7749;49.964;7.890;2022-11-25T07:06:30;19.77;;;12.33;;
15295;SDS011;7749;49.964;7.890;2022-11-25T07:08:58;20.83;;;12.23;;
15295;SDS011;7749;49.964;7.890;2022-11-25T07:11:36;18.90;;;12.10;;
15295;SDS011;7749;49.964;7.890;2022-11-25T07:14:06;20.73;;;12.90;;
15295;SDS011;7749;49.964;7.890;2022-11-25T07:16:37;17.23;;;12.43;;
15295;SDS011;7749;49.964;7.890;2022-11-25T07:19:06;24.17;;;13.30;;
15295;SDS011;7749;49.964;7.890;2022-11-25T07:21:34;23.83;;;12.70;;
15295;SDS011;7749;49.964;7.890;2022-11-25T07:24:03;20.83;;;13.00;;
15295;SDS011;7749;49.964;7.890;2022-11-25T07:26:33;15.93;;;11.57;;
15295;SDS011;7749;49.964;7.890;2022-11-25T07:29:06;17.97;;;12.40;;
15295;SDS011;7749;49.964;7.890;2022-11-25T07:31:55;20.70;;;12.87;;
15295;SDS011;7749;49.964;7.890;2022-11-25T07:34:23;18.73;;;12.23;;
15295;SDS011;7749;49.964;7.890;2022-11-25T07:36:50;19.37;;;12.70;;
15295;SDS011;7749;49.964;7.890;2022-11-25T07:39:19;20.90;;;13.17;;
15295;SDS011;7749;49.964;7.890;2022-11-25T07:41:49;18.73;;;12.43;;
15295;SDS011;7749;49.964;7.890;2022-11-25T07:44:17;16.43;;;11.23;;
15295;SDS011;7749;49.964;7.890;2022-11-25T07:46:46;18.17;;;11.40;;
15295;SDS011;7749;49.964;7.890;2022-11-25T07:49:16;18.90;;;11.80;;
15295;SDS011;7749;49.964;7.890;2022-11-25T07:51:47;17.10;;;11.83;;
15295;SDS011;7749;49.964;7.890;2022-11-25T07:54:15;20.33;;;12.00;;
15295;SDS011;7749;49.964;7.890;2022-11-25T07:56:43;19.50;;;11.90;;
15295;SDS011;7749;49.964;7.890;2022-11-25T07:59:13;18.00;;;11.47;;
15295;SDS011;7749;49.964;7.890;2022-11-25T08:01:47;16.37;;;11.47;;
15295;SDS011;7749;49.964;7.890;2022-11-25T08:04:16;18.43;;;11.97;;
15295;SDS011;7749;49.964;7.890;2022-11-25T08:06:48;19.67;;;12.00;;
15295;SDS011;7749;49.964;7.890;2022-11-25T08:09:19;22.00;;;12.37;;
15295;SDS011;7749;49.964;7.890;2022-11-25T08:11:48;22.47;;;13.00;;
15295;SDS011;7749;49.964;7.890;2022-11-25T08:14:17;17.17;;;12.23;;
15295;SDS011;7749;49.964;7.890;2022-11-25T08:16:45;20.40;;;13.03;;
15295;SDS011;7749;49.964;7.890;2022-11-25T08:19:14;19.33;;;13.63;;
15295;SDS011;7749;49.964;7.890;2022-11-25T08:21:43;18.40;;;12.17;;
15295;SDS011;7749;49.964;7.890;2022-11-25T08:24:18;18.83;;;14.13;;
15295;SDS011;7749;49.964;7.890;2022-11-25T08:27:06;20.83;;;13.10;;
15295;SDS011;7749;49.964;7.890;2022-11-25T08:29:37;21.23;;;14.20;;
15295;SDS011;7749;49.964;7.890;2022-11-25T08:32:06;20.57;;;14.07;;
15295;SDS011;7749;49.964;7.890;2022-11-25T08:34:50;21.87;;;14.40;;
15295;SDS011;7749;49.964;7.890;2022-11-25T08:37:38;24.50;;;13.87;;
15295;SDS011;7749;49.964;7.890;2022-11-25T08:40:16;20.47;;;13.63;;
15295;SDS011;7749;49.964;7.890;2022-11-25T08:43:03;20.47;;;14.27;;
15295;SDS011;7749;49.964;7.890;2022-11-25T08:45:43;20.67;;;13.10;;
15295;SDS011;7749;49.964;7.890;2022-11-25T08:48:32;21.47;;;13.10;;
15295;SDS011;7749;49.964;7.890;2022-11-25T08:51:30;19.50;;;12.73;;
15295;SDS011;7749;49.964;7.890;2022-11-25T08:53:59;19.53;;;12.33;;
15295;SDS011;7749;49.964;7.890;2022-11-25T08:56:27;20.43;;;12.60;;
15295;SDS011;7749;49.964;7.890;2022-11-25T08:58:55;21.60;;;12.43;;
15295;SDS011;7749;49.964;7.890;2022-11-25T09:01:23;20.53;;;12.30;;
15295;SDS011;7749;49.964;7.890;2022-11-25T09:03:52;23.53;;;14.70;;
15295;SDS011;7749;49.964;7.890;2022-11-25T09:06:22;24.17;;;12.73;;
15295;SDS011;7749;49.964;7.890;2022-11-25T09:09:27;22.42;;;12.14;;
15295;SDS011;7749;49.964;7.890;2022-11-25T09:12:18;17.13;;;11.30;;
15295;SDS011;7749;49.964;7.890;2022-11-25T09:14:52;20.30;;;11.90;;
15295;SDS011;7749;49.964;7.890;2022-11-25T09:17:25;22.20;;;12.90;;
15295;SDS011;7749;49.964;7.890;2022-11-25T09:19:58;19.40;;;11.97;;
15295;SDS011;7749;49.964;7.890;2022-11-25T09:22:35;18.93;;;12.20;;
15295;SDS011;7749;49.964;7.890;2022-11-25T09:25:03;17.67;;;12.57;;
15295;SDS011;7749;49.964;7.890;2022-11-25T09:27:31;21.93;;;12.77;;
15295;SDS011;7749;49.964;7.890;2022-11-25T09:29:59;16.47;;;12.23;;
15295;SDS011;7749;49.964;7.890;2022-11-25T09:32:26;19.07;;;13.07;;
15295;SDS011;7749;49.964;7.890;2022-11-25T09:34:54;20.50;;;12.73;;
15295;SDS011;7749;49.964;7.890;2022-11-25T09:37:21;20.97;;;12.60;;
15295;SDS011;7749;49.964;7.890;2022-11-25T09:39:50;17.73;;;13.20;;
15295;SDS011;7749;49.964;7.890;2022-11-25T09:42:31;20.13;;;12.83;;
15295;SDS011;7749;49.964;7.890;2022-11-25T09:55:23;21.53;;;12.67;;
15295;SDS011;7749;49.964;7.890;2022-11-25T10:02:33;17.93;;;11.60;;
15295;SDS011;7749;49.964;7.890;2022-11-25T10:05:31;22.57;;;12.90;;
15295;SDS011;7749;49.964;7.890;2022-11-25T10:08:17;18.97;;;12.03;;
15295;SDS011;7749;49.964;7.890;2022-11-25T10:11:43;16.70;;;12.60;;
15295;SDS011;7749;49.964;7.890;2022-11-25T10:14:39;22.23;;;13.53;;
15295;SDS011;7749;49.964;7.890;2022-11-25T10:17:48;17.90;;;13.20;;
15295;SDS011;7749;49.964;7.890;2022-11-25T10:20:45;23.47;;;13.50;;
15295;SDS011;7749;49.964;7.890;2022-11-25T10:24:04;23.83;;;13.60;;
15295;SDS011;7749;49.964;7.890;2022-11-25T10:27:20;21.93;;;14.27;;
15295;SDS011;7749;49.964;7.890;2022-11-25T10:30:29;21.83;;;13.47;;
15295;SDS011;7749;49.964;7.890;2022-11-25T10:33:22;20.00;;;14.20;;
15295;SDS011;7749;49.964;7.890;2022-11-25T10:39:21;20.23;;;12.97;;
15295;SDS011;7749;49.964;7.890;2022-11-25T10:42:20;22.73;;;13.60;;
15295;SDS011;7749;49.964;7.890;2022-11-25T10:48:53;16.87;;;12.70;;
15295;SDS011;7749;49.964;7.890;2022-11-25T10:51:47;19.10;;;11.80;;
15295;SDS011;7749;49.964;7.890;2022-11-25T10:54:27;21.20;;;11.80;;
15295;SDS011;7749;49.964;7.890;2022-11-25T10:57:02;13.67;;;10.50;;
15295;SDS011;7749;49.964;7.890;2022-11-25T11:00:24;16.97;;;9.60;;
15295;SDS011;7749;49.964;7.890;2022-11-25T11:03:39;13.97;;;9.40;;
15295;SDS011;7749;49.964;7.890;2022-11-25T11:06:48;14.60;;;9.27;;
15295;SDS011;7749;49.964;7.890;2022-11-25T11:09:47;11.33;;;8.70;;
15295;SDS011;7749;49.964;7.890;2022-11-25T11:12:31;13.87;;;8.50;;
15295;SDS011;7749;49.964;7.890;2022-11-25T11:18:29;16.07;;;9.80;;
15295;SDS011;7749;49.964;7.890;2022-11-25T11:21:30;14.20;;;9.77;;
15295;SDS011;7749;49.964;7.890;2022-11-25T11:24:29;14.43;;;9.13;;
15295;SDS011;7749;49.964;7.890;2022-11-25T11:27:26;14.93;;;9.83;;
15295;SDS011;7749;49.964;7.890;2022-11-25T11:30:37;17.83;;;11.27;;
15295;SDS011;7749;49.964;7.890;2022-11-25T11:37:38;16.23;;;11.13;;
15295;SDS011;7749;49.964;7.890;2022-11-25T11:53:29;14.03;;;10.53;;
15295;SDS011;7749;49.964;7.890;2022-11-25T11:57:24;16.40;;;10.40;;
15295;SDS011;7749;49.964;7.890;2022-11-25T12:00:30;15.43;;;8.97;;
15295;SDS011;7749;49.964;7.890;2022-11-25T12:03:21;14.23;;;8.40;;
15295;SDS011;7749;49.964;7.890;2022-11-25T12:06:35;15.93;;;8.53;;
15295;SDS011;7749;49.964;7.890;2022-11-25T12:13:42;12.90;;;7.85;;
15295;SDS011;7749;49.964;7.890;2022-11-25T12:16:50;14.65;;;8.20;;
15295;SDS011;7749;49.964;7.890;2022-11-25T12:19:48;14.77;;;8.30;;
15295;SDS011;7749;49.964;7.890;2022-11-25T12:23:08;15.70;;;8.80;;
15295;SDS011;7749;49.964;7.890;2022-11-25T12:26:32;15.23;;;8.37;;
15295;SDS011;7749;49.964;7.890;2022-11-25T12:46:56;11.60;;;7.77;;
15295;SDS011;7749;49.964;7.890;2022-11-25T12:49:44;13.73;;;8.27;;
15295;SDS011;7749;49.964;7.890;2022-11-25T13:17:18;12.88;;;7.10;;
15295;SDS011;7749;49.964;7.890;2022-11-25T13:23:12;11.18;;;6.13;;
15295;SDS011;7749;49.964;7.890;2022-11-25T13:32:34;12.40;;;7.18;;
15295;SDS011;7749;49.964;7.890;2022-11-25T13:38:07;12.88;;;7.45;;
15295;SDS011;7749;49.964;7.890;2022-11-25T13:44:03;15.27;;;7.30;;
15295;SDS011;7749;49.964;7.890;2022-11-25T13:53:37;13.13;;;7.73;;
15295;SDS011;7749;49.964;7.890;2022-11-25T13:56:27;12.77;;;7.43;;
15295;SDS011;7749;49.964;7.890;2022-11-25T14:02:54;12.10;;;7.73;;
15295;SDS011;7749;49.964;7.890;2022-11-25T14:06:41;14.77;;;7.37;;
15295;SDS011;7749;49.964;7.890;2022-11-25T14:26:37;10.83;;;5.80;;
15295;SDS011;7749;49.964;7.890;2022-11-25T14:29:41;14.47;;;6.70;;
15295;SDS011;7749;49.964;7.890;2022-11-25T14:32:55;11.07;;;6.57;;
15295;SDS011;7749;49.964;7.890;2022-11-25T14:35:48;11.63;;;6.17;;
15295;SDS011;7749;49.964;7.890;2022-11-25T14:38:50;12.83;;;6.73;;
15295;SDS011;7749;49.964;7.890;2022-11-25T14:45:29;9.97;;;3.53;;
15295;SDS011;7749;49.964;7.890;2022-11-25T14:48:15;7.63;;;2.73;;
15295;SDS011;7749;49.964;7.890;2022-11-25T14:54:47;9.87;;;2.70;;
15295;SDS011;7749;49.964;7.890;2022-11-25T14:57:43;8.87;;;2.77;;
15295;SDS011;7749;49.964;7.890;2022-11-25T15:04:01;11.17;;;2.70;;
15295;SDS011;7749;49.964;7.890;2022-11-25T15:07:13;11.13;;;3.27;;
15295;SDS011;7749;49.964;7.890;2022-11-25T15:10:06;9.43;;;2.83;;
15295;SDS011;7749;49.964;7.890;2022-11-25T15:20:38;10.53;;;3.60;;
15295;SDS011;7749;49.964;7.890;2022-11-25T15:23:29;10.20;;;3.50;;
15295;SDS011;7749;49.964;7.890;2022-11-25T15:26:33;10.73;;;3.27;;
15295;SDS011;7749;49.964;7.890;2022-11-25T15:29:48;10.60;;;3.60;;
15295;SDS011;7749;49.964;7.890;2022-11-25T15:32:51;12.87;;;4.23;;
15295;SDS011;7749;49.964;7.890;2022-11-25T15:35:52;19.57;;;6.27;;
15295;SDS011;7749;49.964;7.890;2022-11-25T15:41:26;12.27;;;4.80;;
15295;SDS011;7749;49.964;7.890;2022-11-25T15:44:28;16.23;;;4.07;;
15295;SDS011;7749;49.964;7.890;2022-11-25T15:53:22;13.00;;;4.80;;
15295;SDS011;7749;49.964;7.890;2022-11-25T15:56:09;11.57;;;5.20;;
15295;SDS011;7749;49.964;7.890;2022-11-25T16:05:28;12.97;;;4.27;;
15295;SDS011;7749;49.964;7.890;2022-11-25T16:08:50;13.47;;;4.30;;
15295;SDS011;7749;49.964;7.890;2022-11-25T16:11:47;10.63;;;4.00;;
15295;SDS011;7749;49.964;7.890;2022-11-25T16:14:52;16.77;;;4.73;;
15295;SDS011;7749;49.964;7.890;2022-11-25T16:17:42;8.90;;;4.27;;
15295;SDS011;7749;49.964;7.890;2022-11-25T16:20:54;14.10;;;4.17;;
15295;SDS011;7749;49.964;7.890;2022-11-25T16:23:49;17.43;;;8.13;;
15295;SDS011;7749;49.964;7.890;2022-11-25T16:26:26;22.03;;;10.80;;
15295;SDS011;7749;49.964;7.890;2022-11-25T16:28:56;13.97;;;6.27;;
15295;SDS011;7749;49.964;7.890;2022-11-25T16:31:25;15.33;;;4.97;;
15295;SDS011;7749;49.964;7.890;2022-11-25T16:34:14;9.07;;;3.90;;
15295;SDS011;7749;49.964;7.890;2022-11-25T16:36:46;12.23;;;3.90;;
15295;SDS011;7749;49.964;7.890;2022-11-25T16:39:13;14.30;;;6.20;;
15295;SDS011;7749;49.964;7.890;2022-11-25T16:41:41;8.37;;;3.90;;
15295;SDS011;7749;49.964;7.890;2022-11-25T16:44:19;11.63;;;4.57;;
15295;SDS011;7749;49.964;7.890;2022-11-25T16:46:48;15.03;;;4.97;;
15295;SDS011;7749;49.964;7.890;2022-11-25T16:49:17;14.37;;;4.97;;
15295;SDS011;7749;49.964;7.890;2022-11-25T16:51:46;14.40;;;4.50;;
15295;SDS011;7749;49.964;7.890;2022-11-25T16:54:17;9.83;;;4.60;;
15295;SDS011;7749;49.964;7.890;2022-11-25T16:56:47;11.93;;;4.43;;
15295;SDS011;7749;49.964;7.890;2022-11-25T16:59:21;13.23;;;5.13;;
15295;SDS011;7749;49.964;7.890;2022-11-25T17:02:12;11.97;;;5.00;;
15295;SDS011;7749;49.964;7.890;2022-11-25T17:04:53;8.07;;;5.17;;
15295;SDS011;7749;49.964;7.890;2022-11-25T17:08:05;14.77;;;5.50;;
15295;SDS011;7749;49.964;7.890;2022-11-25T17:10:55;11.00;;;5.07;;
15295;SDS011;7749;49.964;7.890;2022-11-25T17:13:25;10.03;;;5.20;;
15295;SDS011;7749;49.964;7.890;2022-11-25T17:15:58;12.73;;;5.30;;
15295;SDS011;7749;49.964;7.890;2022-11-25T17:19:08;9.53;;;4.70;;
15295;SDS011;7749;49.964;7.890;2022-11-25T17:21:58;13.83;;;5.43;;
15295;SDS011;7749;49.964;7.890;2022-11-25T17:25:14;13.80;;;5.13;;
15295;SDS011;7749;49.964;7.890;2022-11-25T17:31:37;12.87;;;4.83;;
15295;SDS011;7749;49.964;7.890;2022-11-25T17:34:56;9.33;;;3.03;;
15295;SDS011;7749;49.964;7.890;2022-11-25T17:41:17;13.67;;;4.70;;
15295;SDS011;7749;49.964;7.890;2022-11-25T17:44:13;10.10;;;3.87;;
15295;SDS011;7749;49.964;7.890;2022-11-25T17:46:48;12.10;;;4.23;;
15295;SDS011;7749;49.964;7.890;2022-11-25T17:49:16;11.13;;;3.40;;
15295;SDS011;7749;49.964;7.890;2022-11-25T17:51:45;7.27;;;3.03;;
15295;SDS011;7749;49.964;7.890;2022-11-25T17:54:13;12.10;;;4.37;;
15295;SDS011;7749;49.964;7.890;2022-11-25T17:56:42;12.73;;;4.43;;
15295;SDS011;7749;49.964;7.890;2022-11-25T17:59:24;10.67;;;4.30;;
15295;SDS011;7749;49.964;7.890;2022-11-25T18:01:54;10.27;;;4.37;;
15295;SDS011;7749;49.964;7.890;2022-11-25T18:04:22;12.93;;;4.80;;
15295;SDS011;7749;49.964;7.890;2022-11-25T18:06:52;12.20;;;5.30;;
15295;SDS011;7749;49.964;7.890;2022-11-25T18:09:20;13.97;;;5.87;;
15295;SDS011;7749;49.964;7.890;2022-11-25T18:11:49;10.27;;;4.20;;
15295;SDS011;7749;49.964;7.890;2022-11-25T18:17:06;11.23;;;4.23;;
15295;SDS011;7749;49.964;7.890;2022-11-25T18:19:40;11.77;;;4.63;;
15295;SDS011;7749;49.964;7.890;2022-11-25T18:22:12;12.07;;;4.23;;
15295;SDS011;7749;49.964;7.890;2022-11-25T18:24:41;10.63;;;4.73;;
15295;SDS011;7749;49.964;7.890;2022-11-25T18:27:13;14.53;;;5.23;;
15295;SDS011;7749;49.964;7.890;2022-11-25T18:29:53;11.00;;;4.90;;
15295;SDS011;7749;49.964;7.890;2022-11-25T18:32:23;10.20;;;4.43;;
15295;SDS011;7749;49.964;7.890;2022-11-25T18:34:51;9.17;;;3.80;;
15295;SDS011;7749;49.964;7.890;2022-11-25T18:37:19;13.97;;;4.40;;
15295;SDS011;7749;49.964;7.890;2022-11-25T18:39:47;13.23;;;4.63;;
15295;SDS011;7749;49.964;7.890;2022-11-25T18:42:24;13.83;;;5.07;;
15295;SDS011;7749;49.964;7.890;2022-11-25T18:44:53;11.23;;;5.37;;
15295;SDS011;7749;49.964;7.890;2022-11-25T18:47:21;11.37;;;5.13;;
15295;SDS011;7749;49.964;7.890;2022-11-25T18:49:49;14.00;;;5.47;;
15295;SDS011;7749;49.964;7.890;2022-11-25T18:52:22;11.70;;;6.57;;